createdAt,value
2022-11-06T00:00:11.708Z,7.10
2022-11-06T00:00:22.445Z,7.10
2022-11-06T00:00:34.165Z,6.70
2022-11-06T00:00:46.615Z,6.80
2022-11-06T00:00:58.838Z,7.60
2022-11-06T00:01:11.316Z,7.30
2022-11-06T00:01:23.074Z,7.30
2022-11-06T00:01:33.902Z,7.20
2022-11-06T00:01:47.001Z,7.20
2022-11-06T00:01:57.811Z,6.90
2022-11-06T00:02:13.615Z,7.50
2022-11-06T00:02:28.165Z,7.70
2022-11-06T00:02:40.460Z,7.20
2022-11-06T00:02:52.217Z,6.60
2022-11-06T00:03:04.287Z,7.80
2022-11-06T00:03:16.880Z,8.00
2022-11-06T00:03:29.178Z,8.00
2022-11-06T00:03:39.996Z,7.10
2022-11-06T00:03:51.709Z,6.80
2022-11-06T00:04:03.457Z,6.70
2022-11-06T00:04:14.247Z,6.70
2022-11-06T00:04:25.026Z,6.40
2022-11-06T00:04:35.802Z,6.80
2022-11-06T00:04:47.514Z,7.10
2022-11-06T00:04:58.307Z,7.90
2022-11-06T00:05:11.026Z,8.00
2022-11-06T00:05:23.476Z,7.30
2022-11-06T00:05:35.206Z,6.80
2022-11-06T00:05:46.007Z,6.80
2022-11-06T00:05:57.718Z,7.00
2022-11-06T00:06:09.448Z,7.00
2022-11-06T00:06:21.687Z,7.60
2022-11-06T00:06:32.439Z,7.90
2022-11-06T00:06:43.202Z,8.00
2022-11-06T00:06:55.427Z,7.70
2022-11-06T00:07:07.146Z,7.70
2022-11-06T00:07:19.599Z,7.30
2022-11-06T00:07:31.338Z,7.00
2022-11-06T00:07:44.306Z,6.60
2022-11-06T00:07:55.088Z,7.00
2022-11-06T00:08:05.880Z,7.60
2022-11-06T00:08:16.809Z,7.40
2022-11-06T00:08:29.267Z,7.30
2022-11-06T00:08:41.777Z,7.90
2022-11-06T00:08:53.523Z,8.00
2022-11-06T00:09:06.002Z,7.10
2022-11-06T00:09:16.765Z,7.20
2022-11-06T00:09:28.507Z,7.00
2022-11-06T00:09:39.359Z,7.10
2022-11-06T00:09:51.578Z,7.40
2022-11-06T00:10:04.558Z,7.50
2022-11-06T00:10:16.268Z,7.20
2022-11-06T00:10:29.468Z,6.80
2022-11-06T00:10:43.199Z,6.60
2022-11-06T00:10:56.408Z,6.90
2022-11-06T00:11:07.161Z,7.20
2022-11-06T00:11:17.918Z,7.50
2022-11-06T00:11:30.661Z,7.50
2022-11-06T00:11:41.397Z,7.50
2022-11-06T00:11:53.124Z,7.50
2022-11-06T00:12:03.908Z,8.10
2022-11-06T00:12:14.697Z,7.50
2022-11-06T00:12:27.955Z,7.00
2022-11-06T00:12:39.920Z,6.30
2022-11-06T00:12:50.709Z,7.00
2022-11-06T00:13:02.679Z,7.00
2022-11-06T00:13:15.120Z,7.20
2022-11-06T00:13:28.367Z,7.80
2022-11-06T00:13:40.070Z,8.10
2022-11-06T00:13:51.819Z,7.50
2022-11-06T00:14:05.540Z,7.20
2022-11-06T00:14:17.308Z,7.60
2022-11-06T00:14:29.739Z,8.10
2022-11-06T00:14:41.462Z,7.70
2022-11-06T00:14:52.518Z,7.10
2022-11-06T00:15:03.276Z,7.20
2022-11-06T00:15:15.729Z,7.50
2022-11-06T00:15:27.455Z,7.30
2022-11-06T00:15:38.207Z,8.00
2022-11-06T00:15:50.738Z,7.80
2022-11-06T00:16:03.249Z,8.50
2022-11-06T00:16:14.029Z,8.70
2022-11-06T00:16:26.768Z,8.90
2022-11-06T00:16:38.769Z,8.60
2022-11-06T00:16:49.528Z,8.10
2022-11-06T00:17:00.281Z,8.80
2022-11-06T00:17:12.521Z,8.30
2022-11-06T00:17:24.280Z,7.90
2022-11-06T00:17:35.991Z,7.40
2022-11-06T00:17:50.237Z,7.30
2022-11-06T00:18:01.988Z,7.50
2022-11-06T00:18:15.659Z,7.40
2022-11-06T00:18:26.558Z,7.50
2022-11-06T00:18:38.520Z,7.50
2022-11-06T00:18:50.990Z,7.50
2022-11-06T00:19:03.439Z,7.70
2022-11-06T00:19:17.154Z,8.00
2022-11-06T00:19:30.390Z,7.70
2022-11-06T00:19:43.149Z,7.10
2022-11-06T00:19:55.120Z,7.40
2022-11-06T00:20:06.869Z,7.80
2022-11-06T00:20:19.325Z,7.90
2022-11-06T00:20:30.084Z,7.60
2022-11-06T00:20:40.879Z,7.50
2022-11-06T00:20:51.789Z,7.90
2022-11-06T00:21:02.651Z,8.00
2022-11-06T00:21:15.121Z,8.10
2022-11-06T00:21:25.890Z,8.30
2022-11-06T00:21:38.322Z,8.10
2022-11-06T00:21:50.742Z,8.20
2022-11-06T00:22:02.481Z,7.80
2022-11-06T00:22:13.260Z,7.70
2022-11-06T00:22:25.680Z,7.80
2022-11-06T00:22:38.098Z,7.70
2022-11-06T00:22:48.870Z,7.60
2022-11-06T00:23:02.630Z,8.10
2022-11-06T00:23:15.152Z,8.20
2022-11-06T00:23:25.941Z,7.80
2022-11-06T00:23:39.160Z,7.60
2022-11-06T00:23:50.860Z,7.70
2022-11-06T00:24:03.341Z,7.50
2022-11-06T00:24:14.125Z,7.20
2022-11-06T00:24:25.927Z,7.40
2022-11-06T00:24:36.700Z,8.10
2022-11-06T00:24:49.142Z,8.00
2022-11-06T00:24:59.912Z,7.30
2022-11-06T00:25:12.151Z,7.40
2022-11-06T00:25:24.629Z,7.60
2022-11-06T00:25:37.071Z,7.60
2022-11-06T00:25:48.791Z,8.10
2022-11-06T00:26:02.020Z,8.10
2022-11-06T00:26:12.762Z,8.50
2022-11-06T00:26:23.547Z,7.70
2022-11-06T00:26:36.024Z,8.10
2022-11-06T00:26:54.062Z,8.10
2022-11-06T00:27:04.812Z,8.30
2022-11-06T00:27:15.571Z,7.90
2022-11-06T00:27:29.280Z,8.00
2022-11-06T00:27:40.980Z,7.50
2022-11-06T00:27:51.773Z,7.60
2022-11-06T00:28:03.985Z,7.70
2022-11-06T00:28:16.264Z,7.70
2022-11-06T00:28:28.481Z,7.40
2022-11-06T00:28:39.232Z,7.60
2022-11-06T00:28:50.964Z,7.80
2022-11-06T00:29:02.949Z,7.80
2022-11-06T00:29:14.731Z,8.30
2022-11-06T00:29:27.193Z,7.90
2022-11-06T00:29:39.632Z,7.90
2022-11-06T00:29:51.936Z,8.00
2022-11-06T00:30:04.139Z,8.10
2022-11-06T00:30:15.834Z,8.10
2022-11-06T00:30:29.064Z,8.30
2022-11-06T00:30:41.262Z,9.20
2022-11-06T00:30:53.712Z,9.00
2022-11-06T00:31:05.480Z,9.70
2022-11-06T00:31:17.971Z,9.10
2022-11-06T00:31:28.953Z,8.80
2022-11-06T00:31:40.664Z,8.50
2022-11-06T00:31:51.490Z,8.40
2022-11-06T00:32:03.953Z,8.30
2022-11-06T00:32:15.673Z,8.50
2022-11-06T00:32:27.404Z,8.70
2022-11-06T00:32:39.134Z,9.00
2022-11-06T00:32:49.912Z,9.00
2022-11-06T00:33:02.111Z,9.10
2022-11-06T00:33:14.346Z,8.60
2022-11-06T00:33:25.355Z,8.30
2022-11-06T00:33:37.893Z,8.10
2022-11-06T00:33:49.678Z,7.90
2022-11-06T00:34:01.392Z,8.10
2022-11-06T00:34:13.122Z,8.30
2022-11-06T00:34:25.375Z,8.30
2022-11-06T00:34:36.145Z,8.40
2022-11-06T00:34:46.871Z,8.70
2022-11-06T00:34:59.372Z,8.40
2022-11-06T00:35:10.171Z,8.70
2022-11-06T00:35:23.395Z,8.20
2022-11-06T00:35:35.603Z,8.10
2022-11-06T00:35:47.832Z,8.20
2022-11-06T00:35:58.613Z,8.20
2022-11-06T00:36:11.375Z,8.60
2022-11-06T00:36:23.082Z,9.00
2022-11-06T00:36:35.541Z,8.50
2022-11-06T00:36:46.273Z,8.40
2022-11-06T00:36:58.002Z,8.30
2022-11-06T00:37:09.723Z,8.70
2022-11-06T00:37:20.498Z,8.80
2022-11-06T00:37:31.297Z,8.80
2022-11-06T00:37:43.795Z,8.50
2022-11-06T00:37:54.542Z,8.50
2022-11-06T00:38:05.290Z,8.40
2022-11-06T00:38:16.193Z,9.20
2022-11-06T00:38:29.393Z,9.50
2022-11-06T00:38:40.142Z,9.60
2022-11-06T00:38:52.592Z,9.20
2022-11-06T00:39:05.317Z,9.00
2022-11-06T00:39:16.093Z,8.70
2022-11-06T00:39:27.812Z,8.20
2022-11-06T00:39:38.583Z,8.20
2022-11-06T00:39:51.058Z,8.70
2022-11-06T00:40:04.357Z,9.50
2022-11-06T00:40:15.142Z,9.40
2022-11-06T00:40:26.894Z,9.20
2022-11-06T00:40:37.646Z,9.00
2022-11-06T00:40:48.374Z,9.10
2022-11-06T00:41:00.844Z,9.30
2022-11-06T00:41:13.804Z,9.50
2022-11-06T00:41:24.563Z,9.40
2022-11-06T00:41:37.014Z,9.10
2022-11-06T00:41:48.756Z,10.20
2022-11-06T00:42:01.713Z,10.50
2022-11-06T00:42:12.522Z,9.90
2022-11-06T00:42:24.243Z,9.30
2022-11-06T00:42:36.018Z,9.90
2022-11-06T00:42:48.245Z,10.10
2022-11-06T00:43:01.453Z,9.60
2022-11-06T00:43:12.223Z,8.90
2022-11-06T00:43:23.045Z,9.10
2022-11-06T00:43:34.757Z,9.20
2022-11-06T00:43:47.244Z,9.10
2022-11-06T00:43:59.455Z,8.90
2022-11-06T00:44:13.019Z,8.70
2022-11-06T00:44:24.724Z,8.50
2022-11-06T00:44:37.164Z,8.80
2022-11-06T00:44:48.906Z,9.00
2022-11-06T00:45:00.645Z,8.80
2022-11-06T00:45:11.428Z,9.00
2022-11-06T00:45:23.156Z,8.80
2022-11-06T00:45:33.919Z,9.00
2022-11-06T00:45:45.651Z,9.10
2022-11-06T00:45:58.096Z,9.00
2022-11-06T00:46:10.357Z,9.20
2022-11-06T00:46:21.134Z,9.10
2022-11-06T00:46:31.894Z,8.50
2022-11-06T00:46:42.735Z,9.00
2022-11-06T00:46:54.444Z,9.40
2022-11-06T00:47:07.154Z,9.60
2022-11-06T00:47:18.877Z,9.20
2022-11-06T00:47:30.597Z,9.10
2022-11-06T00:47:42.306Z,9.20
2022-11-06T00:47:54.026Z,9.10
2022-11-06T00:48:06.255Z,8.90
2022-11-06T00:48:18.458Z,9.70
2022-11-06T00:48:29.291Z,10.00
2022-11-06T00:48:41.774Z,10.00
2022-11-06T00:48:52.583Z,9.70
2022-11-06T00:49:05.522Z,9.10
2022-11-06T00:49:16.246Z,8.60
2022-11-06T00:49:27.046Z,8.90
2022-11-06T00:49:39.744Z,9.00
2022-11-06T00:49:52.725Z,8.70
2022-11-06T00:50:03.581Z,8.50
2022-11-06T00:50:15.296Z,9.60
2022-11-06T00:50:27.795Z,9.70
2022-11-06T00:50:39.995Z,9.50
2022-11-06T00:50:52.467Z,9.50
2022-11-06T00:51:03.387Z,9.00
2022-11-06T00:51:14.134Z,9.40
2022-11-06T00:51:24.893Z,9.60
2022-11-06T00:51:36.635Z,9.80
2022-11-06T00:51:49.076Z,9.50
2022-11-06T00:52:01.295Z,9.60
2022-11-06T00:52:13.716Z,9.10
2022-11-06T00:52:26.937Z,9.50
2022-11-06T00:52:38.716Z,10.10
2022-11-06T00:52:49.496Z,10.00
2022-11-06T00:53:01.966Z,9.60
2022-11-06T00:53:14.416Z,9.90
2022-11-06T00:53:26.864Z,9.90
2022-11-06T00:53:37.603Z,9.40
2022-11-06T00:53:49.317Z,9.30
2022-11-06T00:54:01.747Z,9.60
2022-11-06T00:54:12.525Z,9.80
2022-11-06T00:54:26.278Z,9.90
2022-11-06T00:54:38.999Z,9.50
2022-11-06T00:54:51.507Z,9.40
2022-11-06T00:55:03.246Z,9.10
2022-11-06T00:55:14.004Z,9.00
2022-11-06T00:55:24.787Z,9.30
2022-11-06T00:55:37.240Z,9.40
2022-11-06T00:55:48.966Z,9.50
2022-11-06T00:56:00.727Z,9.30
2022-11-06T00:56:12.967Z,9.80
2022-11-06T00:56:25.618Z,9.80
2022-11-06T00:56:37.339Z,10.00
2022-11-06T00:56:49.067Z,9.90
2022-11-06T00:57:01.274Z,10.40
2022-11-06T00:57:13.016Z,10.00
2022-11-06T00:57:23.772Z,9.60
2022-11-06T00:57:36.206Z,9.50
2022-11-06T00:57:46.946Z,9.20
2022-11-06T00:57:58.629Z,9.00
2022-11-06T00:58:09.434Z,9.80
2022-11-06T00:58:21.737Z,10.10
2022-11-06T00:58:35.019Z,9.90
2022-11-06T00:58:47.335Z,9.70
2022-11-06T00:58:59.087Z,10.00
2022-11-06T00:59:11.568Z,10.10
2022-11-06T00:59:23.314Z,9.90
2022-11-06T00:59:34.078Z,9.30
2022-11-06T00:59:44.847Z,9.60
2022-11-06T00:59:56.576Z,9.90
2022-11-06T01:00:07.457Z,10.50
2022-11-06T01:00:19.888Z,9.90
2022-11-06T01:00:32.089Z,9.40
2022-11-06T01:00:43.806Z,9.40
2022-11-06T01:00:56.337Z,9.60
2022-11-06T01:01:08.920Z,9.60
2022-11-06T01:01:21.578Z,10.40
2022-11-06T01:01:32.678Z,10.20
2022-11-06T01:01:44.670Z,9.40
2022-11-06T01:01:55.652Z,9.40
2022-11-06T01:02:06.573Z,9.40
2022-11-06T01:02:18.577Z,9.80
2022-11-06T01:02:32.013Z,10.50
2022-11-06T01:02:45.146Z,11.00
2022-11-06T01:02:56.960Z,11.90
2022-11-06T01:03:07.881Z,11.10
2022-11-06T01:03:20.341Z,11.80
2022-11-06T01:03:32.817Z,11.10
2022-11-06T01:03:44.336Z,10.60
2022-11-06T01:03:56.595Z,10.40
2022-11-06T01:04:08.838Z,11.30
2022-11-06T01:04:19.585Z,11.30
2022-11-06T01:04:31.327Z,11.10
2022-11-06T01:04:43.049Z,10.40
2022-11-06T01:04:55.204Z,10.00
2022-11-06T01:05:06.918Z,10.20
2022-11-06T01:05:19.159Z,10.30
2022-11-06T01:05:30.909Z,10.40
2022-11-06T01:05:41.691Z,10.50
2022-11-06T01:05:54.130Z,10.70
2022-11-06T01:06:07.368Z,10.90
2022-11-06T01:06:18.138Z,11.30
2022-11-06T01:06:30.148Z,11.10
2022-11-06T01:06:40.878Z,10.80
2022-11-06T01:06:51.673Z,10.70
2022-11-06T01:07:03.590Z,10.50
2022-11-06T01:07:14.469Z,10.20
2022-11-06T01:07:26.179Z,9.90
2022-11-06T01:07:38.468Z,9.50
2022-11-06T01:07:50.958Z,9.40
2022-11-06T01:08:03.469Z,9.70
2022-11-06T01:08:15.505Z,10.20
2022-11-06T01:08:27.428Z,10.40
2022-11-06T01:08:40.162Z,11.10
2022-11-06T01:08:53.128Z,11.10
2022-11-06T01:09:04.898Z,11.20
2022-11-06T01:09:16.646Z,11.40
2022-11-06T01:09:29.075Z,12.20
2022-11-06T01:09:39.829Z,11.60
2022-11-06T01:09:52.306Z,11.40
2022-11-06T01:10:04.889Z,11.00
2022-11-06T01:10:17.359Z,11.30
2022-11-06T01:10:30.593Z,11.50
2022-11-06T01:10:41.331Z,12.10
2022-11-06T01:10:53.780Z,12.10
2022-11-06T01:11:04.820Z,12.50
2022-11-06T01:11:16.809Z,12.20
2022-11-06T01:11:37.460Z,11.70
2022-11-06T01:12:12.856Z,11.40
2022-11-06T01:12:16.917Z,11.60
2022-11-06T01:12:18.237Z,11.60
2022-11-06T01:12:30.740Z,11.50
2022-11-06T01:12:41.522Z,11.80
2022-11-06T01:12:52.367Z,11.50
2022-11-06T01:13:03.219Z,11.50
2022-11-06T01:13:15.000Z,11.50
2022-11-06T01:13:26.778Z,11.70
2022-11-06T01:13:37.618Z,11.50
2022-11-06T01:13:50.023Z,10.70
2022-11-06T01:14:02.321Z,11.00
2022-11-06T01:14:14.060Z,11.80
2022-11-06T01:14:24.840Z,11.30
2022-11-06T01:14:35.621Z,11.50
2022-11-06T01:14:46.367Z,11.40
2022-11-06T01:14:58.601Z,11.40
2022-11-06T01:15:09.360Z,11.30
2022-11-06T01:15:21.100Z,11.00
2022-11-06T01:15:31.899Z,10.90
2022-11-06T01:15:44.400Z,10.60
2022-11-06T01:15:56.881Z,10.50
2022-11-06T01:16:07.649Z,11.00
2022-11-06T01:16:20.117Z,11.20
2022-11-06T01:16:30.861Z,11.30
2022-11-06T01:16:42.684Z,10.80
2022-11-06T01:16:55.543Z,10.80
2022-11-06T01:17:07.982Z,11.60
2022-11-06T01:17:19.782Z,12.20
2022-11-06T01:17:32.239Z,11.70
2022-11-06T01:17:43.990Z,11.60
2022-11-06T01:17:56.468Z,10.90
2022-11-06T01:18:08.218Z,10.70
2022-11-06T01:18:19.001Z,10.80
2022-11-06T01:18:29.743Z,10.90
2022-11-06T01:18:41.501Z,10.90
2022-11-06T01:18:52.240Z,10.80
2022-11-06T01:19:03.021Z,11.30
2022-11-06T01:19:14.778Z,11.20
2022-11-06T01:19:25.529Z,10.80
2022-11-06T01:19:37.261Z,10.40
2022-11-06T01:19:48.991Z,10.90
2022-11-06T01:19:59.813Z,11.50
2022-11-06T01:20:11.589Z,12.20
2022-11-06T01:20:23.340Z,11.50
2022-11-06T01:20:34.112Z,11.10
2022-11-06T01:20:44.921Z,10.80
2022-11-06T01:20:55.761Z,11.30
2022-11-06T01:21:06.552Z,11.20
2022-11-06T01:21:19.033Z,11.20
2022-11-06T01:21:30.802Z,12.10
2022-11-06T01:21:43.311Z,12.80
2022-11-06T01:21:57.505Z,12.00
2022-11-06T01:22:10.057Z,11.80
2022-11-06T01:22:22.541Z,11.90
2022-11-06T01:22:33.400Z,11.40
2022-11-06T01:22:45.871Z,10.90
2022-11-06T01:22:57.642Z,11.10
2022-11-06T01:23:08.461Z,11.10
2022-11-06T01:23:20.204Z,10.60
2022-11-06T01:23:33.944Z,10.70
2022-11-06T01:23:44.730Z,10.50
2022-11-06T01:23:55.467Z,10.10
2022-11-06T01:24:09.231Z,10.10
2022-11-06T01:24:21.514Z,10.10
2022-11-06T01:24:32.399Z,10.30
2022-11-06T01:24:43.223Z,10.20
2022-11-06T01:24:55.053Z,10.40
2022-11-06T01:25:07.340Z,10.30
2022-11-06T01:25:18.103Z,9.70
2022-11-06T01:25:28.905Z,9.90
2022-11-06T01:25:39.661Z,9.80
2022-11-06T01:25:50.413Z,10.10
2022-11-06T01:26:03.373Z,9.90
2022-11-06T01:26:14.174Z,9.90
2022-11-06T01:26:37.620Z,9.80
2022-11-06T01:26:58.541Z,9.30
2022-11-06T01:27:24.965Z,9.40
2022-11-06T01:27:30.811Z,10.10
2022-11-06T01:27:31.178Z,9.60
2022-11-06T01:27:41.924Z,9.60
2022-11-06T01:27:54.389Z,9.60
2022-11-06T01:28:06.993Z,9.80
2022-11-06T01:28:17.780Z,9.60
2022-11-06T01:28:30.224Z,9.30
2022-11-06T01:28:40.953Z,9.10
2022-11-06T01:28:53.400Z,9.10
2022-11-06T01:29:04.256Z,9.40
2022-11-06T01:29:15.013Z,9.40
2022-11-06T01:29:29.752Z,9.70
2022-11-06T01:29:40.495Z,9.10
2022-11-06T01:29:53.214Z,9.10
2022-11-06T01:30:04.974Z,9.30
2022-11-06T01:30:15.713Z,9.50
2022-11-06T01:30:26.506Z,9.30
2022-11-06T01:30:38.222Z,9.20
2022-11-06T01:30:51.457Z,8.90
2022-11-06T01:31:02.213Z,9.40
2022-11-06T01:31:12.986Z,9.90
2022-11-06T01:31:23.762Z,10.40
2022-11-06T01:31:37.001Z,10.40
2022-11-06T01:31:47.743Z,9.50
2022-11-06T01:31:59.925Z,9.30
2022-11-06T01:32:13.053Z,9.20
2022-11-06T01:32:25.521Z,9.00
2022-11-06T01:32:38.013Z,9.60
2022-11-06T01:32:50.283Z,9.60
2022-11-06T01:33:02.774Z,9.90
2022-11-06T01:33:13.580Z,9.50
2022-11-06T01:33:26.334Z,9.40
2022-11-06T01:33:37.113Z,9.10
2022-11-06T01:33:47.895Z,9.30
2022-11-06T01:34:00.144Z,9.60
2022-11-06T01:34:13.364Z,9.50
2022-11-06T01:34:24.218Z,9.80
2022-11-06T01:34:35.947Z,9.50
2022-11-06T01:34:48.281Z,9.10
2022-11-06T01:35:00.043Z,9.50
2022-11-06T01:35:12.597Z,10.10
2022-11-06T01:35:23.370Z,9.10
2022-11-06T01:35:36.697Z,8.50
2022-11-06T01:35:47.445Z,8.90
2022-11-06T01:35:58.207Z,9.40
2022-11-06T01:36:10.962Z,9.60
2022-11-06T01:36:23.203Z,9.50
2022-11-06T01:36:35.694Z,8.90
2022-11-06T01:36:47.928Z,8.90
2022-11-06T01:36:58.726Z,8.90
2022-11-06T01:37:14.435Z,9.10
2022-11-06T01:37:25.415Z,9.70
2022-11-06T01:37:37.163Z,9.30
2022-11-06T01:37:49.388Z,9.10
2022-11-06T01:38:01.104Z,8.90
2022-11-06T01:38:12.114Z,9.40
2022-11-06T01:38:23.084Z,9.40
2022-11-06T01:38:35.603Z,9.20
2022-11-06T01:38:46.415Z,9.60
2022-11-06T01:38:58.144Z,9.30
2022-11-06T01:39:08.985Z,8.90
2022-11-06T01:39:21.187Z,8.70
2022-11-06T01:39:33.615Z,8.70
2022-11-06T01:39:44.414Z,8.60
2022-11-06T01:39:56.396Z,8.60
2022-11-06T01:40:08.627Z,8.70
2022-11-06T01:40:20.425Z,9.40
2022-11-06T01:40:32.175Z,9.10
2022-11-06T01:40:42.943Z,9.20
2022-11-06T01:40:53.754Z,9.30
2022-11-06T01:41:04.605Z,9.30
2022-11-06T01:41:16.805Z,9.20
2022-11-06T01:41:28.576Z,9.00
2022-11-06T01:41:40.824Z,8.60
2022-11-06T01:41:52.602Z,9.30
2022-11-06T01:42:04.344Z,9.30
2022-11-06T01:42:15.104Z,10.20
2022-11-06T01:42:25.944Z,9.70
2022-11-06T01:42:36.867Z,9.80
2022-11-06T01:42:48.597Z,9.10
2022-11-06T01:42:59.387Z,9.00
2022-11-06T01:43:12.023Z,8.60
2022-11-06T01:43:25.265Z,8.60
2022-11-06T01:43:37.025Z,8.30
2022-11-06T01:43:49.485Z,8.10
2022-11-06T01:44:00.254Z,8.70
2022-11-06T01:44:12.026Z,9.30
2022-11-06T01:44:22.925Z,9.20
2022-11-06T01:44:34.654Z,9.10
2022-11-06T01:44:47.123Z,8.80
2022-11-06T01:44:57.942Z,8.40
2022-11-06T01:45:10.705Z,8.40
2022-11-06T01:45:23.460Z,9.20
2022-11-06T01:45:34.276Z,9.50
2022-11-06T01:45:46.770Z,9.30
2022-11-06T01:45:58.487Z,9.30
2022-11-06T01:46:09.237Z,9.20
2022-11-06T01:46:21.003Z,8.70
2022-11-06T01:46:33.967Z,8.50
2022-11-06T01:46:46.865Z,8.10
2022-11-06T01:46:57.710Z,9.20
2022-11-06T01:47:10.166Z,9.20
2022-11-06T01:47:22.435Z,10.00
2022-11-06T01:47:34.167Z,10.20
2022-11-06T01:47:44.945Z,10.40
2022-11-06T01:47:55.685Z,9.30
2022-11-06T01:48:07.666Z,9.30
2022-11-06T01:48:18.395Z,8.70
2022-11-06T01:48:30.082Z,8.50
2022-11-06T01:48:42.546Z,8.60
2022-11-06T01:48:54.316Z,8.60
2022-11-06T01:49:06.085Z,8.20
2022-11-06T01:49:17.796Z,8.00
2022-11-06T01:49:30.351Z,8.30
2022-11-06T01:49:42.082Z,8.10
2022-11-06T01:49:52.884Z,8.30
2022-11-06T01:50:03.678Z,8.40
2022-11-06T01:50:14.435Z,9.30
2022-11-06T01:50:26.187Z,9.00
2022-11-06T01:50:38.745Z,8.80
2022-11-06T01:50:49.526Z,8.80
2022-11-06T01:51:01.297Z,9.10
2022-11-06T01:51:14.015Z,8.50
2022-11-06T01:51:25.789Z,8.70
2022-11-06T01:51:36.689Z,8.30
2022-11-06T01:51:48.889Z,7.70
2022-11-06T01:51:59.666Z,7.90
2022-11-06T01:52:11.368Z,7.90
2022-11-06T01:52:23.136Z,7.90
2022-11-06T01:52:36.406Z,7.70
2022-11-06T01:52:47.166Z,8.20
2022-11-06T01:52:58.907Z,7.80
2022-11-06T01:53:12.637Z,8.00
2022-11-06T01:53:23.407Z,8.10
2022-11-06T01:53:35.886Z,8.20
2022-11-06T01:53:46.687Z,8.80
2022-11-06T01:53:57.528Z,8.50
2022-11-06T01:54:08.357Z,8.60
2022-11-06T01:54:20.117Z,8.40
2022-11-06T01:54:30.967Z,8.40
2022-11-06T01:54:43.446Z,8.10
2022-11-06T01:54:54.187Z,8.10
2022-11-06T01:55:04.928Z,7.80
2022-11-06T01:55:17.664Z,8.00
2022-11-06T01:55:29.660Z,8.30
2022-11-06T01:55:40.428Z,8.10
2022-11-06T01:55:52.907Z,8.00
2022-11-06T01:56:04.656Z,8.30
2022-11-06T01:56:15.467Z,8.10
2022-11-06T01:56:26.269Z,8.00
2022-11-06T01:56:37.987Z,7.90
2022-11-06T01:56:48.757Z,8.80
2022-11-06T01:56:59.529Z,8.80
2022-11-06T01:57:10.308Z,8.60
2022-11-06T01:57:22.010Z,8.60
2022-11-06T01:57:34.486Z,8.80
2022-11-06T01:57:46.229Z,8.00
2022-11-06T01:57:56.992Z,7.60
2022-11-06T01:58:08.717Z,7.50
2022-11-06T01:58:20.450Z,7.50
2022-11-06T01:58:32.916Z,8.00
2022-11-06T01:58:43.659Z,8.00
2022-11-06T01:58:54.427Z,7.90
2022-11-06T01:59:07.378Z,7.90
2022-11-06T01:59:18.181Z,8.20
2022-11-06T01:59:29.891Z,8.90
2022-11-06T01:59:41.872Z,8.90
2022-11-06T01:59:53.582Z,9.10
2022-11-06T02:00:05.597Z,8.30
2022-11-06T02:00:16.370Z,8.20
2022-11-06T02:00:27.098Z,7.80
2022-11-06T02:00:37.883Z,7.80
2022-11-06T02:00:48.617Z,8.00
2022-11-06T02:01:00.342Z,8.20
2022-11-06T02:01:12.128Z,7.60
2022-11-06T02:01:23.995Z,7.40
2022-11-06T02:01:36.483Z,8.10
2022-11-06T02:01:47.506Z,8.20
2022-11-06T02:01:59.477Z,7.70
2022-11-06T02:02:10.353Z,7.50
2022-11-06T02:02:21.226Z,7.30
2022-11-06T02:02:33.186Z,7.40
2022-11-06T02:02:45.065Z,7.50
2022-11-06T02:02:56.036Z,7.90
2022-11-06T02:03:07.008Z,8.30
2022-11-06T02:03:18.708Z,8.60
2022-11-06T02:03:30.940Z,8.60
2022-11-06T02:03:41.668Z,8.50
2022-11-06T02:03:53.429Z,8.30
2022-11-06T02:04:04.338Z,8.70
2022-11-06T02:04:15.078Z,8.30
2022-11-06T02:04:27.543Z,8.20
2022-11-06T02:04:39.569Z,7.60
2022-11-06T02:04:51.328Z,7.80
2022-11-06T02:05:03.124Z,8.00
2022-11-06T02:05:14.828Z,8.20
2022-11-06T02:05:25.569Z,8.00
2022-11-06T02:05:37.829Z,7.90
2022-11-06T02:05:50.268Z,7.90
2022-11-06T02:06:01.050Z,8.00
2022-11-06T02:06:13.691Z,8.30
2022-11-06T02:06:25.431Z,8.20
2022-11-06T02:06:37.680Z,8.40
2022-11-06T02:06:50.899Z,8.90
2022-11-06T02:07:01.637Z,8.70
2022-11-06T02:07:14.101Z,8.40
2022-11-06T02:07:24.840Z,8.00
2022-11-06T02:07:35.592Z,8.70
2022-11-06T02:07:48.017Z,8.00
2022-11-06T02:07:58.788Z,7.40
2022-11-06T02:08:11.631Z,7.40
2022-11-06T02:08:24.299Z,8.10
2022-11-06T02:08:36.092Z,7.70
2022-11-06T02:08:46.918Z,7.00
2022-11-06T02:08:57.708Z,7.40
2022-11-06T02:09:08.501Z,7.50
2022-11-06T02:09:20.211Z,7.60
2022-11-06T02:09:31.964Z,7.10
2022-11-06T02:09:42.708Z,7.10
2022-11-06T02:09:55.971Z,7.40
2022-11-06T02:10:08.431Z,7.40
2022-11-06T02:10:20.700Z,7.80
2022-11-06T02:10:32.468Z,7.60
2022-11-06T02:10:44.944Z,7.50
2022-11-06T02:10:57.420Z,7.10
2022-11-06T02:11:09.869Z,7.30
2022-11-06T02:11:22.871Z,7.40
2022-11-06T02:11:35.921Z,7.00
2022-11-06T02:11:47.650Z,7.10
2022-11-06T02:12:00.149Z,7.20
2022-11-06T02:12:12.628Z,6.70
2022-11-06T02:12:24.424Z,7.00
2022-11-06T02:12:36.140Z,7.20
2022-11-06T02:12:46.891Z,7.50
2022-11-06T02:12:59.350Z,7.50
2022-11-06T02:13:11.090Z,7.60
2022-11-06T02:13:24.340Z,7.30
2022-11-06T02:13:38.122Z,7.10
2022-11-06T02:13:48.868Z,6.80
2022-11-06T02:14:01.360Z,7.70
2022-11-06T02:14:12.119Z,8.10
2022-11-06T02:14:23.870Z,7.70
2022-11-06T02:14:34.609Z,7.50
2022-11-06T02:14:45.421Z,7.30
2022-11-06T02:14:57.182Z,7.30
2022-11-06T02:15:07.985Z,7.20
2022-11-06T02:15:20.050Z,7.70
2022-11-06T02:15:33.279Z,7.60
2022-11-06T02:15:45.784Z,7.30
2022-11-06T02:15:59.580Z,7.30
2022-11-06T02:16:12.051Z,7.70
2022-11-06T02:16:22.810Z,7.50
2022-11-06T02:16:35.060Z,7.10
2022-11-06T02:16:45.830Z,7.40
2022-11-06T02:16:58.350Z,7.80
2022-11-06T02:17:10.100Z,7.60
2022-11-06T02:17:21.911Z,7.20
2022-11-06T02:17:33.701Z,7.80
2022-11-06T02:17:45.449Z,8.10
2022-11-06T02:17:56.221Z,7.90
2022-11-06T02:18:07.051Z,7.50
2022-11-06T02:18:18.713Z,7.40
2022-11-06T02:18:29.471Z,6.80
2022-11-06T02:18:41.212Z,6.50
2022-11-06T02:18:53.649Z,7.60
2022-11-06T02:19:05.921Z,8.30
2022-11-06T02:19:17.657Z,8.20
2022-11-06T02:19:29.413Z,7.80
2022-11-06T02:19:41.937Z,8.00
2022-11-06T02:19:54.201Z,7.80
2022-11-06T02:20:07.450Z,7.60
2022-11-06T02:20:19.200Z,7.60
2022-11-06T02:20:30.942Z,8.30
2022-11-06T02:20:41.742Z,8.60
2022-11-06T02:20:54.023Z,8.10
2022-11-06T02:21:04.815Z,7.50
2022-11-06T02:21:16.662Z,7.10
2022-11-06T02:21:28.936Z,6.80
2022-11-06T02:21:39.741Z,7.00
2022-11-06T02:21:51.494Z,8.00
2022-11-06T02:22:02.251Z,8.20
2022-11-06T02:22:13.968Z,7.90
2022-11-06T02:22:24.734Z,7.80
2022-11-06T02:22:35.501Z,7.70
2022-11-06T02:22:47.742Z,7.50
2022-11-06T02:22:58.534Z,7.00
2022-11-06T02:23:11.502Z,7.40
2022-11-06T02:23:23.239Z,7.90
2022-11-06T02:23:34.963Z,8.50
2022-11-06T02:23:46.721Z,8.30
2022-11-06T02:23:58.450Z,8.40
2022-11-06T02:24:10.231Z,8.30
2022-11-06T02:24:21.923Z,8.00
2022-11-06T02:24:34.423Z,7.50
2022-11-06T02:24:45.221Z,6.80
2022-11-06T02:24:56.963Z,6.90
2022-11-06T02:25:07.771Z,7.10
2022-11-06T02:25:18.551Z,7.30
2022-11-06T02:25:31.796Z,7.40
2022-11-06T02:25:45.030Z,7.50
2022-11-06T02:25:56.795Z,7.10
2022-11-06T02:26:09.263Z,7.00
2022-11-06T02:26:21.781Z,6.60
2022-11-06T02:26:33.545Z,7.10
2022-11-06T02:26:44.442Z,7.10
2022-11-06T02:26:55.211Z,7.00
2022-11-06T02:27:06.950Z,6.90
2022-11-06T02:27:17.713Z,7.30
2022-11-06T02:27:28.506Z,7.40
2022-11-06T02:27:40.984Z,7.60
2022-11-06T02:27:54.218Z,7.60
2022-11-06T02:28:06.493Z,8.20
2022-11-06T02:28:18.242Z,8.40
2022-11-06T02:28:29.056Z,7.50
2022-11-06T02:28:39.833Z,7.60
2022-11-06T02:28:51.543Z,7.80
2022-11-06T02:29:02.302Z,7.80
2022-11-06T02:29:13.101Z,7.30
2022-11-06T02:29:24.823Z,7.00
2022-11-06T02:29:36.583Z,7.50
2022-11-06T02:29:49.324Z,7.70
2022-11-06T02:30:01.074Z,7.90
2022-11-06T02:30:13.554Z,7.40
2022-11-06T02:30:24.333Z,7.40
2022-11-06T02:30:35.062Z,7.50
2022-11-06T02:30:46.787Z,7.20
2022-11-06T02:31:00.671Z,7.20
2022-11-06T02:31:12.884Z,6.80
2022-11-06T02:31:25.653Z,6.50
2022-11-06T02:31:36.413Z,6.80
2022-11-06T02:31:48.161Z,6.70
2022-11-06T02:32:00.593Z,6.90
2022-11-06T02:32:11.374Z,7.00
2022-11-06T02:32:23.113Z,7.20
2022-11-06T02:32:33.869Z,7.20
2022-11-06T02:32:44.644Z,7.20
2022-11-06T02:32:55.403Z,8.40
2022-11-06T02:33:07.638Z,8.70
2022-11-06T02:33:18.403Z,8.10
2022-11-06T02:33:29.193Z,7.20
2022-11-06T02:33:41.414Z,7.00
2022-11-06T02:33:53.873Z,7.10
2022-11-06T02:34:06.666Z,7.10
2022-11-06T02:34:17.475Z,7.20
2022-11-06T02:34:29.205Z,7.60
2022-11-06T02:34:40.983Z,7.40
2022-11-06T02:34:51.768Z,7.10
2022-11-06T02:35:04.248Z,6.90
2022-11-06T02:35:15.034Z,6.60
2022-11-06T02:35:25.768Z,6.50
2022-11-06T02:35:37.523Z,7.10
2022-11-06T02:35:49.253Z,7.50
2022-11-06T02:36:00.033Z,7.50
2022-11-06T02:36:10.804Z,7.30
2022-11-06T02:36:22.825Z,7.40